sensor_id;sensor_type;location;lat;lon;timestamp;pressure;altitude;pressure_sealevel;temperature;humidity
55592;BME280;41454;53.396;-1.510;2022-11-15T00:02:13;98739.55;;;5.78;100.00
55592;BME280;41454;53.396;-1.510;2022-11-15T00:04:48;98734.70;;;6.50;100.00
55592;BME280;41454;53.396;-1.510;2022-11-15T00:07:50;98735.43;;;6.86;100.00
55592;BME280;41454;53.396;-1.510;2022-11-15T00:10:18;98731.46;;;6.04;100.00
55592;BME280;41454;53.396;-1.510;2022-11-15T00:12:54;98730.02;;;6.78;100.00
55592;BME280;41454;53.396;-1.510;2022-11-15T00:15:25;98730.16;;;5.95;100.00
55592;BME280;41454;53.396;-1.510;2022-11-15T00:17:57;98721.47;;;7.14;100.00
55592;BME280;41454;53.396;-1.510;2022-11-15T00:20:25;98716.90;;;6.98;100.00
55592;BME280;41454;53.396;-1.510;2022-11-15T00:22:52;98716.03;;;6.61;100.00
55592;BME280;41454;53.396;-1.510;2022-11-15T00:25:20;98711.56;;;7.55;100.00
55592;BME280;41454;53.396;-1.510;2022-11-15T00:27:47;98709.98;;;6.98;100.00
55592;BME280;41454;53.396;-1.510;2022-11-15T00:30:15;98710.58;;;6.39;100.00
55592;BME280;41454;53.396;-1.510;2022-11-15T00:32:42;98704.46;;;7.04;100.00
55592;BME280;41454;53.396;-1.510;2022-11-15T00:35:10;98703.43;;;6.13;100.00
55592;BME280;41454;53.396;-1.510;2022-11-15T00:37:37;98696.13;;;6.64;100.00
55592;BME280;41454;53.396;-1.510;2022-11-15T00:40:06;98686.45;;;6.41;100.00
55592;BME280;41454;53.396;-1.510;2022-11-15T00:42:33;98681.72;;;5.46;100.00
55592;BME280;41454;53.396;-1.510;2022-11-15T00:45:01;98681.03;;;5.51;100.00
55592;BME280;41454;53.396;-1.510;2022-11-15T00:47:28;98675.33;;;5.04;100.00
55592;BME280;41454;53.396;-1.510;2022-11-15T00:49:56;98674.29;;;5.40;100.00
55592;BME280;41454;53.396;-1.510;2022-11-15T00:52:23;98670.76;;;5.61;100.00
55592;BME280;41454;53.396;-1.510;2022-11-15T00:54:50;98665.98;;;5.23;100.00
55592;BME280;41454;53.396;-1.510;2022-11-15T00:57:17;98660.19;;;4.91;100.00
55592;BME280;41454;53.396;-1.510;2022-11-15T00:59:46;98656.94;;;5.49;100.00
55592;BME280;41454;53.396;-1.510;2022-11-15T01:02:37;98651.49;;;5.65;100.00
55592;BME280;41454;53.396;-1.510;2022-11-15T01:05:06;98644.17;;;5.20;100.00
55592;BME280;41454;53.396;-1.510;2022-11-15T01:07:33;98640.51;;;5.16;100.00
55592;BME280;41454;53.396;-1.510;2022-11-15T01:10:01;98631.15;;;4.73;100.00
55592;BME280;41454;53.396;-1.510;2022-11-15T01:12:30;98632.22;;;5.46;100.00
55592;BME280;41454;53.396;-1.510;2022-11-15T01:15:45;98627.01;;;5.21;100.00
55592;BME280;41454;53.396;-1.510;2022-11-15T01:18:12;98628.99;;;4.38;100.00
55592;BME280;41454;53.396;-1.510;2022-11-15T01:20:40;98628.46;;;5.10;100.00
55592;BME280;41454;53.396;-1.510;2022-11-15T01:23:08;98623.79;;;6.34;100.00
55592;BME280;41454;53.396;-1.510;2022-11-15T01:25:35;98616.69;;;6.29;100.00
55592;BME280;41454;53.396;-1.510;2022-11-15T01:28:02;98611.42;;;6.24;100.00
55592;BME280;41454;53.396;-1.510;2022-11-15T01:30:29;98605.69;;;6.69;100.00
55592;BME280;41454;53.396;-1.510;2022-11-15T01:32:57;98607.33;;;5.88;100.00
55592;BME280;41454;53.396;-1.510;2022-11-15T01:35:24;98608.34;;;5.26;100.00
55592;BME280;41454;53.396;-1.510;2022-11-15T01:37:50;98602.86;;;5.21;100.00
55592;BME280;41454;53.396;-1.510;2022-11-15T01:40:17;98601.72;;;5.17;100.00
55592;BME280;41454;53.396;-1.510;2022-11-15T01:42:44;98595.62;;;4.98;100.00
55592;BME280;41454;53.396;-1.510;2022-11-15T01:45:14;98590.85;;;5.61;100.00
55592;BME280;41454;53.396;-1.510;2022-11-15T01:47:45;98581.88;;;6.25;100.00
55592;BME280;41454;53.396;-1.510;2022-11-15T01:50:16;98581.27;;;6.34;100.00
55592;BME280;41454;53.396;-1.510;2022-11-15T01:52:45;98577.12;;;6.80;100.00
55592;BME280;41454;53.396;-1.510;2022-11-15T01:55:15;98570.38;;;6.50;100.00
55592;BME280;41454;53.396;-1.510;2022-11-15T01:57:46;98562.94;;;6.63;100.00
55592;BME280;41454;53.396;-1.510;2022-11-15T02:00:15;98558.06;;;6.53;100.00
55592;BME280;41454;53.396;-1.510;2022-11-15T02:02:43;98555.29;;;6.43;100.00
55592;BME280;41454;53.396;-1.510;2022-11-15T02:05:10;98553.83;;;5.86;100.00
55592;BME280;41454;53.396;-1.510;2022-11-15T02:07:37;98548.66;;;6.22;100.00
55592;BME280;41454;53.396;-1.510;2022-11-15T02:10:08;98539.40;;;6.44;100.00
55592;BME280;41454;53.396;-1.510;2022-11-15T02:12:36;98536.13;;;6.56;100.00
55592;BME280;41454;53.396;-1.510;2022-11-15T02:15:06;98530.34;;;7.76;100.00
55592;BME280;41454;53.396;-1.510;2022-11-15T02:17:50;98524.07;;;7.67;100.00
55592;BME280;41454;53.396;-1.510;2022-11-15T02:20:52;98520.21;;;7.96;100.00
55592;BME280;41454;53.396;-1.510;2022-11-15T02:24:11;98518.14;;;6.40;100.00
55592;BME280;41454;53.396;-1.510;2022-11-15T02:27:08;98511.51;;;6.31;100.00
55592;BME280;41454;53.396;-1.510;2022-11-15T02:30:03;98507.56;;;8.05;100.00
55592;BME280;41454;53.396;-1.510;2022-11-15T02:32:36;98499.72;;;7.90;100.00
55592;BME280;41454;53.396;-1.510;2022-11-15T02:35:13;98495.65;;;7.02;100.00
55592;BME280;41454;53.396;-1.510;2022-11-15T02:37:48;98484.61;;;7.18;100.00
55592;BME280;41454;53.396;-1.510;2022-11-15T02:40:27;98482.44;;;6.47;100.00
55592;BME280;41454;53.396;-1.510;2022-11-15T02:43:03;98473.36;;;6.93;100.00
55592;BME280;41454;53.396;-1.510;2022-11-15T02:45:36;98471.51;;;6.99;100.00
55592;BME280;41454;53.396;-1.510;2022-11-15T02:48:06;98467.85;;;7.29;100.00
55592;BME280;41454;53.396;-1.510;2022-11-15T02:50:34;98464.40;;;6.87;100.00
55592;BME280;41454;53.396;-1.510;2022-11-15T02:53:01;98455.32;;;7.98;100.00
55592;BME280;41454;53.396;-1.510;2022-11-15T02:55:30;98451.55;;;5.81;100.00
55592;BME280;41454;53.396;-1.510;2022-11-15T02:58:11;98447.04;;;6.92;100.00
55592;BME280;41454;53.396;-1.510;2022-11-15T03:00:50;98438.41;;;7.42;100.00
55592;BME280;41454;53.396;-1.510;2022-11-15T03:03:34;98440.61;;;8.03;100.00
55592;BME280;41454;53.396;-1.510;2022-11-15T03:06:13;98431.91;;;6.90;100.00
55592;BME280;41454;53.396;-1.510;2022-11-15T03:08:51;98425.28;;;7.27;100.00
55592;BME280;41454;53.396;-1.510;2022-11-15T03:11:21;98417.07;;;7.45;100.00
55592;BME280;41454;53.396;-1.510;2022-11-15T03:13:55;98415.78;;;6.32;100.00
55592;BME280;41454;53.396;-1.510;2022-11-15T03:16:29;98411.59;;;5.70;100.00
55592;BME280;41454;53.396;-1.510;2022-11-15T03:19:04;98401.61;;;6.65;100.00
55592;BME280;41454;53.396;-1.510;2022-11-15T03:21:35;98395.80;;;5.89;100.00
55592;BME280;41454;53.396;-1.510;2022-11-15T03:24:08;98393.92;;;5.93;100.00
55592;BME280;41454;53.396;-1.510;2022-11-15T03:26:36;98392.91;;;6.55;100.00
55592;BME280;41454;53.396;-1.510;2022-11-15T03:29:11;98393.12;;;5.15;100.00
55592;BME280;41454;53.396;-1.510;2022-11-15T03:31:42;98393.90;;;4.64;100.00
55592;BME280;41454;53.396;-1.510;2022-11-15T03:34:19;98387.36;;;5.56;100.00
55592;BME280;41454;53.396;-1.510;2022-11-15T03:36:49;98371.48;;;5.48;100.00
55592;BME280;41454;53.396;-1.510;2022-11-15T03:39:16;98365.67;;;5.68;100.00
55592;BME280;41454;53.396;-1.510;2022-11-15T03:41:48;98367.03;;;5.63;100.00
55592;BME280;41454;53.396;-1.510;2022-11-15T03:44:25;98363.17;;;5.37;100.00
55592;BME280;41454;53.396;-1.510;2022-11-15T03:47:03;98368.53;;;6.04;100.00
55592;BME280;41454;53.396;-1.510;2022-11-15T03:49:34;98368.78;;;4.87;100.00
55592;BME280;41454;53.396;-1.510;2022-11-15T03:52:04;98367.17;;;5.33;100.00
55592;BME280;41454;53.396;-1.510;2022-11-15T03:54:31;98361.38;;;5.54;100.00
55592;BME280;41454;53.396;-1.510;2022-11-15T03:56:59;98362.31;;;5.92;100.00
55592;BME280;41454;53.396;-1.510;2022-11-15T03:59:26;98358.28;;;5.49;100.00
55592;BME280;41454;53.396;-1.510;2022-11-15T04:01:54;98364.45;;;4.58;100.00
55592;BME280;41454;53.396;-1.510;2022-11-15T04:04:22;98365.11;;;5.11;100.00
55592;BME280;41454;53.396;-1.510;2022-11-15T04:06:49;98370.58;;;5.02;100.00
55592;BME280;41454;53.396;-1.510;2022-11-15T04:09:17;98361.56;;;5.39;100.00
55592;BME280;41454;53.396;-1.510;2022-11-15T04:11:44;98348.55;;;5.00;100.00
55592;BME280;41454;53.396;-1.510;2022-11-15T04:14:11;98350.33;;;5.63;100.00
55592;BME280;41454;53.396;-1.510;2022-11-15T04:16:39;98338.65;;;5.18;100.00
55592;BME280;41454;53.396;-1.510;2022-11-15T04:19:06;98330.08;;;6.43;100.00
55592;BME280;41454;53.396;-1.510;2022-11-15T04:21:33;98332.71;;;4.96;100.00
55592;BME280;41454;53.396;-1.510;2022-11-15T04:24:00;98333.33;;;5.82;100.00
55592;BME280;41454;53.396;-1.510;2022-11-15T04:26:27;98326.48;;;5.22;100.00
55592;BME280;41454;53.396;-1.510;2022-11-15T04:28:59;98322.85;;;5.09;100.00
55592;BME280;41454;53.396;-1.510;2022-11-15T04:31:32;98318.96;;;6.36;100.00
55592;BME280;41454;53.396;-1.510;2022-11-15T04:34:00;98311.80;;;6.27;100.00
55592;BME280;41454;53.396;-1.510;2022-11-15T04:36:27;98302.49;;;5.00;100.00
55592;BME280;41454;53.396;-1.510;2022-11-15T04:38:54;98305.21;;;6.12;100.00
55592;BME280;41454;53.396;-1.510;2022-11-15T04:41:21;98301.31;;;5.70;100.00
55592;BME280;41454;53.396;-1.510;2022-11-15T04:43:49;98294.12;;;6.08;100.00
55592;BME280;41454;53.396;-1.510;2022-11-15T04:46:16;98300.12;;;5.00;100.00
55592;BME280;41454;53.396;-1.510;2022-11-15T04:48:44;98297.69;;;5.44;100.00
55592;BME280;41454;53.396;-1.510;2022-11-15T04:51:11;98291.46;;;4.98;100.00
55592;BME280;41454;53.396;-1.510;2022-11-15T04:53:39;98284.43;;;5.78;100.00
55592;BME280;41454;53.396;-1.510;2022-11-15T04:56:07;98290.50;;;5.00;100.00
55592;BME280;41454;53.396;-1.510;2022-11-15T04:58:34;98291.11;;;5.38;100.00
55592;BME280;41454;53.396;-1.510;2022-11-15T05:01:06;98292.38;;;5.46;100.00
55592;BME280;41454;53.396;-1.510;2022-11-15T05:03:34;98285.18;;;6.33;100.00
55592;BME280;41454;53.396;-1.510;2022-11-15T05:06:02;98281.09;;;6.79;100.00
55592;BME280;41454;53.396;-1.510;2022-11-15T05:08:29;98274.63;;;5.18;100.00
55592;BME280;41454;53.396;-1.510;2022-11-15T05:10:57;98272.09;;;6.01;100.00
55592;BME280;41454;53.396;-1.510;2022-11-15T05:13:24;98275.59;;;5.01;100.00
55592;BME280;41454;53.396;-1.510;2022-11-15T05:15:52;98272.82;;;5.61;100.00
55592;BME280;41454;53.396;-1.510;2022-11-15T05:18:19;98267.76;;;5.44;100.00
55592;BME280;41454;53.396;-1.510;2022-11-15T05:20:46;98268.36;;;5.32;100.00
55592;BME280;41454;53.396;-1.510;2022-11-15T05:23:13;98257.43;;;5.59;100.00
55592;BME280;41454;53.396;-1.510;2022-11-15T05:25:40;98250.50;;;5.49;100.00
55592;BME280;41454;53.396;-1.510;2022-11-15T05:28:07;98248.50;;;5.44;100.00
55592;BME280;41454;53.396;-1.510;2022-11-15T05:30:34;98236.11;;;5.25;100.00
55592;BME280;41454;53.396;-1.510;2022-11-15T05:33:01;98234.47;;;5.26;100.00
55592;BME280;41454;53.396;-1.510;2022-11-15T05:35:31;98238.13;;;4.75;100.00
55592;BME280;41454;53.396;-1.510;2022-11-15T05:38:00;98232.31;;;5.25;100.00
55592;BME280;41454;53.396;-1.510;2022-11-15T05:40:27;98229.63;;;5.22;100.00
55592;BME280;41454;53.396;-1.510;2022-11-15T05:42:56;98218.52;;;5.75;100.00
55592;BME280;41454;53.396;-1.510;2022-11-15T05:45:23;98208.87;;;6.64;100.00
55592;BME280;41454;53.396;-1.510;2022-11-15T05:47:52;98206.61;;;6.25;100.00
55592;BME280;41454;53.396;-1.510;2022-11-15T05:50:19;98205.59;;;6.06;100.00
55592;BME280;41454;53.396;-1.510;2022-11-15T05:52:54;98202.25;;;6.00;100.00
55592;BME280;41454;53.396;-1.510;2022-11-15T05:55:22;98198.49;;;5.44;100.00
55592;BME280;41454;53.396;-1.510;2022-11-15T05:57:49;98197.08;;;6.03;100.00
55592;BME280;41454;53.396;-1.510;2022-11-15T06:00:17;98196.81;;;5.01;100.00
55592;BME280;41454;53.396;-1.510;2022-11-15T06:02:44;98190.33;;;5.93;100.00
55592;BME280;41454;53.396;-1.510;2022-11-15T06:05:11;98185.57;;;6.21;100.00
55592;BME280;41454;53.396;-1.510;2022-11-15T06:07:39;98181.19;;;5.80;100.00
55592;BME280;41454;53.396;-1.510;2022-11-15T06:10:20;98177.32;;;6.83;100.00
55592;BME280;41454;53.396;-1.510;2022-11-15T06:12:57;98169.16;;;6.80;100.00
55592;BME280;41454;53.396;-1.510;2022-11-15T06:15:23;98157.25;;;6.29;100.00
55592;BME280;41454;53.396;-1.510;2022-11-15T06:17:51;98156.27;;;5.71;100.00
55592;BME280;41454;53.396;-1.510;2022-11-15T06:20:18;98158.04;;;5.89;100.00
55592;BME280;41454;53.396;-1.510;2022-11-15T06:22:46;98152.06;;;5.61;100.00
55592;BME280;41454;53.396;-1.510;2022-11-15T06:25:13;98147.91;;;6.40;100.00
55592;BME280;41454;53.396;-1.510;2022-11-15T06:27:40;98139.73;;;7.25;100.00
55592;BME280;41454;53.396;-1.510;2022-11-15T06:30:07;98129.88;;;6.68;100.00
55592;BME280;41454;53.396;-1.510;2022-11-15T06:32:35;98125.93;;;6.78;100.00
55592;BME280;41454;53.396;-1.510;2022-11-15T06:35:02;98121.87;;;5.52;100.00
55592;BME280;41454;53.396;-1.510;2022-11-15T06:37:29;98126.93;;;6.00;100.00
55592;BME280;41454;53.396;-1.510;2022-11-15T06:39:56;98122.25;;;6.61;100.00
55592;BME280;41454;53.396;-1.510;2022-11-15T06:42:23;98112.65;;;6.93;100.00
55592;BME280;41454;53.396;-1.510;2022-11-15T06:44:50;98105.92;;;7.51;100.00
55592;BME280;41454;53.396;-1.510;2022-11-15T06:47:17;98106.34;;;6.76;100.00
55592;BME280;41454;53.396;-1.510;2022-11-15T06:49:44;98109.55;;;6.22;100.00
55592;BME280;41454;53.396;-1.510;2022-11-15T06:52:11;98110.50;;;6.39;100.00
55592;BME280;41454;53.396;-1.510;2022-11-15T06:54:38;98100.33;;;7.13;100.00
55592;BME280;41454;53.396;-1.510;2022-11-15T06:57:05;98102.94;;;5.95;100.00
55592;BME280;41454;53.396;-1.510;2022-11-15T07:00:27;98097.40;;;6.11;100.00
55592;BME280;41454;53.396;-1.510;2022-11-15T07:02:54;98091.60;;;6.11;100.00
55592;BME280;41454;53.396;-1.510;2022-11-15T07:05:21;98086.91;;;5.62;100.00
55592;BME280;41454;53.396;-1.510;2022-11-15T07:07:52;98082.66;;;6.20;100.00
55592;BME280;41454;53.396;-1.510;2022-11-15T07:10:19;98074.70;;;6.02;100.00
55592;BME280;41454;53.396;-1.510;2022-11-15T07:12:47;98073.82;;;7.00;100.00
55592;BME280;41454;53.396;-1.510;2022-11-15T07:15:14;98063.22;;;6.86;100.00
55592;BME280;41454;53.396;-1.510;2022-11-15T07:17:42;98057.97;;;7.19;100.00
55592;BME280;41454;53.396;-1.510;2022-11-15T07:20:10;98056.11;;;6.00;100.00
55592;BME280;41454;53.396;-1.510;2022-11-15T07:22:37;98059.14;;;7.14;100.00
55592;BME280;41454;53.396;-1.510;2022-11-15T07:25:05;98056.12;;;6.27;100.00
55592;BME280;41454;53.396;-1.510;2022-11-15T07:27:32;98049.70;;;6.43;100.00
55592;BME280;41454;53.396;-1.510;2022-11-15T07:29:59;98048.65;;;5.38;100.00
55592;BME280;41454;53.396;-1.510;2022-11-15T07:32:27;98053.26;;;6.38;100.00
55592;BME280;41454;53.396;-1.510;2022-11-15T07:34:54;98045.62;;;7.38;100.00
55592;BME280;41454;53.396;-1.510;2022-11-15T07:37:22;98043.00;;;7.35;100.00
55592;BME280;41454;53.396;-1.510;2022-11-15T07:39:49;98035.66;;;6.54;100.00
55592;BME280;41454;53.396;-1.510;2022-11-15T07:42:16;98041.56;;;6.09;100.00
55592;BME280;41454;53.396;-1.510;2022-11-15T07:44:43;98033.64;;;6.85;100.00
55592;BME280;41454;53.396;-1.510;2022-11-15T07:47:10;98033.25;;;5.96;100.00
55592;BME280;41454;53.396;-1.510;2022-11-15T07:49:38;98034.48;;;5.35;100.00
55592;BME280;41454;53.396;-1.510;2022-11-15T07:52:05;98033.03;;;6.97;100.00
55592;BME280;41454;53.396;-1.510;2022-11-15T07:54:33;98036.48;;;5.75;100.00
55592;BME280;41454;53.396;-1.510;2022-11-15T07:57:00;98037.45;;;5.90;100.00
55592;BME280;41454;53.396;-1.510;2022-11-15T07:59:27;98032.10;;;6.32;100.00
55592;BME280;41454;53.396;-1.510;2022-11-15T08:01:54;98023.67;;;6.84;100.00
55592;BME280;41454;53.396;-1.510;2022-11-15T08:04:20;98022.79;;;6.75;100.00
55592;BME280;41454;53.396;-1.510;2022-11-15T08:06:47;98021.20;;;6.33;100.00
55592;BME280;41454;53.396;-1.510;2022-11-15T08:09:14;98008.77;;;7.13;100.00
55592;BME280;41454;53.396;-1.510;2022-11-15T08:11:41;98006.12;;;7.97;100.00
55592;BME280;41454;53.396;-1.510;2022-11-15T08:14:08;97998.95;;;8.06;100.00
55592;BME280;41454;53.396;-1.510;2022-11-15T08:16:36;97996.82;;;6.57;100.00
55592;BME280;41454;53.396;-1.510;2022-11-15T08:19:02;97999.87;;;6.37;100.00
55592;BME280;41454;53.396;-1.510;2022-11-15T08:21:30;98003.30;;;6.13;100.00
55592;BME280;41454;53.396;-1.510;2022-11-15T08:23:57;97994.69;;;6.59;100.00
55592;BME280;41454;53.396;-1.510;2022-11-15T08:26:24;97996.78;;;6.95;100.00
55592;BME280;41454;53.396;-1.510;2022-11-15T08:28:52;97996.86;;;6.31;100.00
55592;BME280;41454;53.396;-1.510;2022-11-15T08:31:18;97991.91;;;7.35;100.00
55592;BME280;41454;53.396;-1.510;2022-11-15T08:33:46;97985.37;;;7.03;100.00
55592;BME280;41454;53.396;-1.510;2022-11-15T08:36:15;97985.37;;;7.86;100.00
55592;BME280;41454;53.396;-1.510;2022-11-15T08:38:43;97974.99;;;8.18;100.00
55592;BME280;41454;53.396;-1.510;2022-11-15T08:41:13;97974.84;;;7.31;100.00
55592;BME280;41454;53.396;-1.510;2022-11-15T08:43:40;97974.40;;;6.55;100.00
55592;BME280;41454;53.396;-1.510;2022-11-15T08:46:09;97970.32;;;7.46;100.00
55592;BME280;41454;53.396;-1.510;2022-11-15T08:48:38;97964.28;;;7.34;100.00
55592;BME280;41454;53.396;-1.510;2022-11-15T08:51:06;97959.92;;;6.55;100.00
55592;BME280;41454;53.396;-1.510;2022-11-15T08:53:34;97951.30;;;6.87;100.00
55592;BME280;41454;53.396;-1.510;2022-11-15T08:56:01;97951.95;;;6.87;100.00
55592;BME280;41454;53.396;-1.510;2022-11-15T08:58:28;97946.15;;;6.46;100.00
55592;BME280;41454;53.396;-1.510;2022-11-15T09:00:56;97947.56;;;6.18;100.00
55592;BME280;41454;53.396;-1.510;2022-11-15T09:03:24;97948.38;;;6.29;100.00
55592;BME280;41454;53.396;-1.510;2022-11-15T09:05:55;97936.83;;;5.86;100.00
55592;BME280;41454;53.396;-1.510;2022-11-15T09:08:22;97931.44;;;6.29;100.00
55592;BME280;41454;53.396;-1.510;2022-11-15T09:10:49;97924.36;;;7.48;100.00
55592;BME280;41454;53.396;-1.510;2022-11-15T09:13:17;97914.00;;;7.49;100.00
55592;BME280;41454;53.396;-1.510;2022-11-15T09:15:44;97914.36;;;6.59;100.00
55592;BME280;41454;53.396;-1.510;2022-11-15T09:18:12;97902.11;;;7.35;100.00
55592;BME280;41454;53.396;-1.510;2022-11-15T09:20:39;97899.88;;;7.44;100.00
55592;BME280;41454;53.396;-1.510;2022-11-15T09:23:07;97898.49;;;6.50;100.00
55592;BME280;41454;53.396;-1.510;2022-11-15T09:25:35;97890.34;;;6.27;100.00
55592;BME280;41454;53.396;-1.510;2022-11-15T09:28:05;97888.21;;;6.47;100.00
55592;BME280;41454;53.396;-1.510;2022-11-15T09:30:33;97878.89;;;6.69;100.00
55592;BME280;41454;53.396;-1.510;2022-11-15T09:33:11;97870.86;;;7.31;100.00
55592;BME280;41454;53.396;-1.510;2022-11-15T09:35:38;97861.07;;;7.78;100.00
55592;BME280;41454;53.396;-1.510;2022-11-15T09:38:05;97857.72;;;7.15;100.00
55592;BME280;41454;53.396;-1.510;2022-11-15T09:40:36;97866.27;;;7.13;100.00
55592;BME280;41454;53.396;-1.510;2022-11-15T09:43:22;97857.44;;;6.97;100.00
55592;BME280;41454;53.396;-1.510;2022-11-15T09:45:59;97858.15;;;6.53;100.00
55592;BME280;41454;53.396;-1.510;2022-11-15T09:48:41;97852.96;;;6.37;100.00
55592;BME280;41454;53.396;-1.510;2022-11-15T09:51:17;97847.20;;;6.48;100.00
55592;BME280;41454;53.396;-1.510;2022-11-15T09:53:50;97840.87;;;6.65;100.00
55592;BME280;41454;53.396;-1.510;2022-11-15T09:56:22;97833.06;;;6.64;100.00
55592;BME280;41454;53.396;-1.510;2022-11-15T09:58:57;97823.58;;;7.22;100.00
55592;BME280;41454;53.396;-1.510;2022-11-15T10:01:37;97815.84;;;6.75;100.00
55592;BME280;41454;53.396;-1.510;2022-11-15T10:04:07;97807.81;;;7.92;100.00
55592;BME280;41454;53.396;-1.510;2022-11-15T10:06:38;97808.60;;;6.73;100.00
55592;BME280;41454;53.396;-1.510;2022-11-15T10:09:11;97807.06;;;6.43;100.00
55592;BME280;41454;53.396;-1.510;2022-11-15T10:11:40;97813.05;;;6.18;100.00
55592;BME280;41454;53.396;-1.510;2022-11-15T10:15:00;97804.37;;;6.34;100.00
55592;BME280;41454;53.396;-1.510;2022-11-15T10:18:08;97799.27;;;6.16;100.00
55592;BME280;41454;53.396;-1.510;2022-11-15T10:20:46;97795.40;;;6.87;100.00
55592;BME280;41454;53.396;-1.510;2022-11-15T10:23:15;97782.28;;;7.03;100.00
55592;BME280;41454;53.396;-1.510;2022-11-15T10:25:42;97778.26;;;7.17;100.00
55592;BME280;41454;53.396;-1.510;2022-11-15T10:28:21;97772.11;;;6.87;100.00
55592;BME280;41454;53.396;-1.510;2022-11-15T10:30:50;97763.16;;;6.80;100.00
55592;BME280;41454;53.396;-1.510;2022-11-15T10:33:25;97762.43;;;7.34;100.00
55592;BME280;41454;53.396;-1.510;2022-11-15T10:36:25;97760.56;;;6.59;100.00
55592;BME280;41454;53.396;-1.510;2022-11-15T10:38:56;97745.85;;;7.27;100.00
55592;BME280;41454;53.396;-1.510;2022-11-15T10:41:34;97744.31;;;7.06;100.00
55592;BME280;41454;53.396;-1.510;2022-11-15T10:44:09;97739.58;;;7.59;100.00
55592;BME280;41454;53.396;-1.510;2022-11-15T10:46:39;97726.69;;;7.05;100.00
55592;BME280;41454;53.396;-1.510;2022-11-15T10:49:13;97715.63;;;7.70;100.00
55592;BME280;41454;53.396;-1.510;2022-11-15T10:51:44;97706.78;;;6.96;100.00
55592;BME280;41454;53.396;-1.510;2022-11-15T10:54:12;97701.42;;;8.35;100.00
55592;BME280;41454;53.396;-1.510;2022-11-15T10:56:42;97702.90;;;6.12;100.00
55592;BME280;41454;53.396;-1.510;2022-11-15T10:59:18;97706.50;;;6.59;100.00
55592;BME280;41454;53.396;-1.510;2022-11-15T11:01:48;97698.27;;;7.03;100.00
55592;BME280;41454;53.396;-1.510;2022-11-15T11:04:16;97699.21;;;6.71;100.00
55592;BME280;41454;53.396;-1.510;2022-11-15T11:06:47;97692.60;;;7.02;100.00
55592;BME280;41454;53.396;-1.510;2022-11-15T11:09:25;97698.30;;;7.14;100.00
55592;BME280;41454;53.396;-1.510;2022-11-15T11:11:55;97693.19;;;6.37;100.00
55592;BME280;41454;53.396;-1.510;2022-11-15T11:14:24;97682.82;;;7.11;100.00
55592;BME280;41454;53.396;-1.510;2022-11-15T11:16:55;97679.75;;;6.64;100.00
55592;BME280;41454;53.396;-1.510;2022-11-15T11:19:49;97670.10;;;7.12;100.00
55592;BME280;41454;53.396;-1.510;2022-11-15T11:22:25;97656.33;;;6.97;100.00
55592;BME280;41454;53.396;-1.510;2022-11-15T11:25:54;97653.95;;;6.94;100.00
55592;BME280;41454;53.396;-1.510;2022-11-15T11:29:22;97647.34;;;7.03;100.00
55592;BME280;41454;53.396;-1.510;2022-11-15T11:31:58;97632.80;;;7.39;100.00
55592;BME280;41454;53.396;-1.510;2022-11-15T11:34:49;97631.68;;;7.03;100.00
55592;BME280;41454;53.396;-1.510;2022-11-15T11:37:24;97626.50;;;6.98;100.00
55592;BME280;41454;53.396;-1.510;2022-11-15T11:40:04;97626.73;;;6.98;100.00
55592;BME280;41454;53.396;-1.510;2022-11-15T11:42:42;97622.81;;;7.08;100.00
55592;BME280;41454;53.396;-1.510;2022-11-15T11:45:21;97617.26;;;6.88;100.00
55592;BME280;41454;53.396;-1.510;2022-11-15T11:47:57;97614.76;;;7.16;100.00
55592;BME280;41454;53.396;-1.510;2022-11-15T11:50:29;97611.20;;;7.46;100.00
55592;BME280;41454;53.396;-1.510;2022-11-15T11:53:03;97603.01;;;7.34;100.00
55592;BME280;41454;53.396;-1.510;2022-11-15T11:55:36;97594.19;;;7.26;100.00
55592;BME280;41454;53.396;-1.510;2022-11-15T11:58:12;97583.47;;;7.28;100.00
55592;BME280;41454;53.396;-1.510;2022-11-15T12:00:43;97586.92;;;6.79;100.00
55592;BME280;41454;53.396;-1.510;2022-11-15T12:03:17;97588.30;;;7.07;100.00
55592;BME280;41454;53.396;-1.510;2022-11-15T12:05:50;97584.66;;;6.84;100.00
55592;BME280;41454;53.396;-1.510;2022-11-15T12:08:26;97587.34;;;7.03;100.00
55592;BME280;41454;53.396;-1.510;2022-11-15T12:11:04;97585.97;;;8.09;100.00
55592;BME280;41454;53.396;-1.510;2022-11-15T12:13:35;97586.22;;;7.74;100.00
55592;BME280;41454;53.396;-1.510;2022-11-15T12:16:07;97586.23;;;7.60;100.00
55592;BME280;41454;53.396;-1.510;2022-11-15T12:18:46;97581.39;;;6.99;100.00
55592;BME280;41454;53.396;-1.510;2022-11-15T12:21:16;97584.82;;;7.42;100.00
55592;BME280;41454;53.396;-1.510;2022-11-15T12:23:48;97580.12;;;7.58;100.00
55592;BME280;41454;53.396;-1.510;2022-11-15T12:26:33;97576.87;;;7.51;100.00
55592;BME280;41454;53.396;-1.510;2022-11-15T12:29:05;97572.69;;;7.16;100.00
55592;BME280;41454;53.396;-1.510;2022-11-15T12:31:39;97574.73;;;8.02;100.00
55592;BME280;41454;53.396;-1.510;2022-11-15T12:34:28;97572.36;;;7.85;100.00
55592;BME280;41454;53.396;-1.510;2022-11-15T12:36:56;97567.80;;;8.27;100.00
55592;BME280;41454;53.396;-1.510;2022-11-15T12:40:15;97560.98;;;7.37;100.00
55592;BME280;41454;53.396;-1.510;2022-11-15T12:42:59;97559.77;;;7.96;100.00
55592;BME280;41454;53.396;-1.510;2022-11-15T12:45:28;97552.94;;;9.26;100.00
55592;BME280;41454;53.396;-1.510;2022-11-15T12:49:43;97542.97;;;8.60;100.00
55592;BME280;41454;53.396;-1.510;2022-11-15T12:52:10;97538.99;;;8.35;100.00
55592;BME280;41454;53.396;-1.510;2022-11-15T12:55:02;97527.00;;;9.43;100.00
55592;BME280;41454;53.396;-1.510;2022-11-15T12:57:54;97515.09;;;10.09;100.00
55592;BME280;41454;53.396;-1.510;2022-11-15T13:00:37;97499.53;;;9.65;100.00
55592;BME280;41454;53.396;-1.510;2022-11-15T13:04:08;97514.77;;;7.72;100.00
55592;BME280;41454;53.396;-1.510;2022-11-15T13:06:42;97515.25;;;8.56;100.00
55592;BME280;41454;53.396;-1.510;2022-11-15T13:10:30;97515.07;;;8.38;100.00
55592;BME280;41454;53.396;-1.510;2022-11-15T13:12:59;97517.36;;;6.96;100.00
55592;BME280;41454;53.396;-1.510;2022-11-15T13:15:37;97520.41;;;7.48;100.00
55592;BME280;41454;53.396;-1.510;2022-11-15T13:18:40;97514.03;;;7.10;100.00
55592;BME280;41454;53.396;-1.510;2022-11-15T13:21:24;97513.44;;;7.52;100.00